Flight Track Log - Related Links

Times and Time Zones

All times are in EDT time to prevent confusion due to time zone crossing. See the EWG2787 flight status page for this flight to view local times or setup timezone preferences in your user account.

Time Position Orientation Groundspeed Altitude Reporting Facility
EDT Latitude Longitude Course Direction KTS MPH feet Rate Location/Type
Tue 01:25:00 AM 50.4435 8.8920 305° West  Level Estimated
Tue 01:26:00 AM 50.5012 8.7526 303° West  Level Estimated
Tue 01:27:00 AM 50.5587 8.6127 303° West  Level Estimated
Tue 01:28:00 AM 50.6160 8.4725 303° West  Level Estimated
Tue 01:29:00 AM 50.6732 8.3320 303° West  Level Estimated
Tue 01:30:00 AM 50.7302 8.1912 303° West  Level Estimated
Tue 01:31:00 AM 50.7870 8.0500 303° West  Level Estimated
Tue 01:32:00 AM 50.8437 7.9084 302° West  Level Estimated
Tue 01:33:00 AM 50.9001 7.7665 302° West  Level Estimated
Tue 01:34:00 AM 50.9565 7.6243 302° West  Level Estimated
Tue 01:35:00 AM 51.0126 7.4817 302° West  Level Estimated
Tue 01:36:00 AM 51.0686 7.3388 302° West  Level Estimated
Tue 01:37:00 AM 51.1243 7.1955 302° West  Level Estimated
Tue 01:38:00 AM 51.1800 7.0519 302° West  Level Estimated
Tue 01:39:00 AM 51.2354 6.9079 302° West  Level Estimated
Tue 01:40:00 AM 51.2895 6.7668 302° West  Level Estimated
Tue 01:41:00 AM 51.2895 6.7668 46° Northeast  Level Estimated
Tue 01:42:00 AM 51.2895 6.7668 314° West  Level Estimated
Tue 01:43:00 AM 51.2895 6.7668 46° Northeast  Level Estimated
Tue 01:44:00 AM 51.2895 6.7668 314° West  Level Estimated
Tue 01:45:00 AM 51.2895 6.7668 46° Northeast  Level Estimated
Tue 01:46:00 AM 51.2895 6.7668 314° West  Level Estimated
Tue 01:47:00 AM 51.2895 6.7668 46° Northeast  Level Estimated
Tue 01:48:00 AM 51.2895 6.7668 314° West  Level Estimated
Tue 01:49:00 AM 51.2895 6.7668 46° Northeast  Level Estimated
Tue 01:50:00 AM 51.2895 6.7668 314° West  Level Estimated
Tue 01:51:00 AM 51.2895 6.7668 46° Northeast  Level Estimated
Tue 01:52:00 AM 51.2895 6.7668 314° West  Level Estimated
Tue 01:53:00 AM 51.2895 6.7668 46° Northeast  Level Estimated
Tue 01:54:00 AM 51.2895 6.7668 314° West  Level Estimated
Tue 01:55:00 AM 51.2895 6.7668 46° Northeast  Level Estimated
Tue 01:56:00 AM 51.2895 6.7668 314° West  Level Estimated

Login

Don't have an account? Register now (free) for customized features, flight alerts, and more!